createdAt,value
2017-02-09T00:00:41.985Z,19.52
2017-02-09T00:01:51.505Z,19.48
2017-02-09T00:03:01.421Z,19.48
2017-02-09T00:04:11.674Z,19.54
2017-02-09T00:05:21.548Z,19.48
2017-02-09T00:06:31.472Z,19.47
2017-02-09T00:07:41.338Z,19.49
2017-02-09T00:08:51.605Z,19.49
2017-02-09T00:10:00.740Z,19.49
2017-02-09T00:11:09.877Z,19.51
2017-02-09T00:12:20.178Z,19.47
2017-02-09T00:13:30.478Z,19.47
2017-02-09T00:14:40.767Z,19.44
2017-02-09T00:15:50.248Z,19.44
2017-02-09T00:16:59.859Z,19.41
2017-02-09T00:18:09.771Z,19.41
2017-02-09T00:19:19.681Z,19.37
2017-02-09T00:20:29.202Z,19.34
2017-02-09T00:21:38.305Z,19.33
2017-02-09T00:22:48.721Z,19.31
2017-02-09T00:23:59.013Z,19.36
2017-02-09T00:25:08.161Z,19.3
2017-02-09T00:26:17.684Z,19.27
2017-02-09T00:27:27.209Z,19.31
2017-02-09T00:28:36.734Z,19.29
2017-02-09T00:29:45.870Z,19.41
2017-02-09T00:30:55.599Z,19.41
2017-02-09T00:32:05.509Z,19.37
2017-02-09T00:33:15.026Z,19.41
2017-02-09T00:34:24.563Z,19.26
2017-02-09T00:35:33.333Z,19.37
2017-02-09T00:36:43.244Z,19.36
2017-02-09T00:37:53.369Z,19.37
2017-02-09T00:39:02.479Z,19.36
2017-02-09T00:40:12.005Z,19.27
2017-02-09T00:41:22.309Z,19.37
2017-02-09T00:42:32.990Z,19.29
2017-02-09T00:43:43.674Z,19.29
2017-02-09T00:44:53.595Z,19.34
2017-02-09T00:46:02.323Z,19.33
2017-02-09T00:47:11.850Z,19.29
2017-02-09T00:48:22.145Z,19.3
2017-02-09T00:49:32.837Z,19.27
2017-02-09T00:50:42.344Z,19.31
2017-02-09T00:51:52.214Z,19.22
2017-02-09T00:53:02.440Z,19.24
2017-02-09T00:54:11.939Z,19.22
2017-02-09T00:55:21.853Z,19.22
2017-02-09T00:56:32.150Z,19.19
2017-02-09T00:57:41.633Z,19.16
2017-02-09T00:58:51.521Z,19.19
2017-02-09T01:00:01.815Z,19.27
2017-02-09T01:01:11.294Z,19.19
2017-02-09T01:02:21.174Z,19.16
2017-02-09T01:03:30.707Z,19.21
2017-02-09T01:04:40.975Z,19.14
2017-02-09T01:05:50.879Z,19.12
2017-02-09T01:07:00.357Z,19.15
2017-02-09T01:08:09.431Z,19.09
2017-02-09T01:09:18.924Z,19.16
2017-02-09T01:10:28.850Z,19.11
2017-02-09T01:11:39.532Z,19.09
2017-02-09T01:12:49.822Z,19.11
2017-02-09T01:14:00.505Z,19.09
2017-02-09T01:15:11.145Z,19.09
2017-02-09T01:16:21.035Z,19.11
2017-02-09T01:17:30.949Z,19.04
2017-02-09T01:18:41.251Z,19.02
2017-02-09T01:19:51.165Z,19.04
2017-02-09T01:21:01.071Z,19.02
2017-02-09T01:22:11.365Z,19.02
2017-02-09T01:23:20.107Z,19.08
2017-02-09T01:24:29.981Z,18.99
2017-02-09T01:25:38.727Z,19
2017-02-09T01:26:47.863Z,19
2017-02-09T01:27:57.347Z,18.95
2017-02-09T01:29:07.277Z,18.93
2017-02-09T01:30:17.185Z,18.98
2017-02-09T01:31:27.101Z,19
2017-02-09T01:32:37.018Z,18.96
2017-02-09T01:33:47.314Z,18.98
2017-02-09T01:34:57.225Z,18.98
2017-02-09T01:36:07.520Z,18.99
2017-02-09T01:37:17.047Z,19.08
2017-02-09T01:38:26.566Z,18.98
2017-02-09T01:39:36.050Z,18.95
2017-02-09T01:40:45.541Z,18.98
2017-02-09T01:41:55.066Z,18.98
2017-02-09T01:43:05.360Z,19.02
2017-02-09T01:44:15.656Z,18.92
2017-02-09T01:45:25.908Z,18.99
2017-02-09T01:46:35.401Z,18.89
2017-02-09T01:47:45.275Z,18.98
2017-02-09T01:48:55.532Z,18.96
2017-02-09T01:50:05.441Z,18.93
2017-02-09T01:51:15.743Z,18.96
2017-02-09T01:52:25.643Z,18.93
2017-02-09T01:53:34.783Z,18.9
2017-02-09T01:54:45.474Z,18.93
2017-02-09T01:55:54.992Z,18.95
2017-02-09T01:57:04.898Z,18.88
2017-02-09T01:58:14.772Z,18.93
2017-02-09T01:59:25.427Z,18.93
2017-02-09T02:00:34.561Z,18.9
2017-02-09T02:01:44.465Z,18.93
2017-02-09T02:02:54.532Z,18.93
2017-02-09T02:04:04.400Z,18.95
2017-02-09T02:05:14.283Z,18.86
2017-02-09T02:06:23.422Z,18.95
2017-02-09T02:07:33.332Z,18.9
2017-02-09T02:08:42.476Z,18.9
2017-02-09T02:09:52.385Z,18.92
2017-02-09T02:11:02.292Z,18.92
2017-02-09T02:12:11.815Z,18.89
2017-02-09T02:13:20.565Z,18.89
2017-02-09T02:14:30.470Z,18.84
2017-02-09T02:15:40.769Z,18.86
2017-02-09T02:16:50.292Z,18.92
2017-02-09T02:18:00.580Z,18.9
2017-02-09T02:19:10.526Z,18.92
2017-02-09T02:20:19.661Z,18.81
2017-02-09T02:21:29.152Z,18.86
2017-02-09T02:22:39.829Z,18.86
2017-02-09T02:23:50.123Z,18.81
2017-02-09T02:24:59.259Z,18.84
2017-02-09T02:26:08.399Z,18.84
2017-02-09T02:27:18.272Z,18.88
2017-02-09T02:28:28.538Z,18.9
2017-02-09T02:29:38.834Z,18.93
2017-02-09T02:30:49.723Z,18.8
2017-02-09T02:31:59.631Z,18.74
2017-02-09T02:33:09.154Z,18.8
2017-02-09T02:34:19.452Z,18.77
2017-02-09T02:35:29.333Z,18.81
2017-02-09T02:36:39.277Z,18.75
2017-02-09T02:37:49.794Z,18.84
2017-02-09T02:38:59.320Z,18.78
2017-02-09T02:40:09.622Z,18.81
2017-02-09T02:41:19.539Z,18.81
2017-02-09T02:42:29.064Z,18.74
2017-02-09T02:43:38.545Z,18.81
2017-02-09T02:44:48.041Z,18.68
2017-02-09T02:45:57.172Z,18.68
2017-02-09T02:47:06.695Z,18.7
2017-02-09T02:48:16.599Z,18.81
2017-02-09T02:49:26.082Z,18.74
2017-02-09T02:50:35.917Z,18.71
2017-02-09T02:51:45.371Z,18.71
2017-02-09T02:52:54.865Z,18.74
2017-02-09T02:54:04.012Z,18.74
2017-02-09T02:55:14.264Z,18.73
2017-02-09T02:56:23.758Z,18.74
2017-02-09T02:57:33.868Z,18.65
2017-02-09T02:58:43.004Z,18.73
2017-02-09T02:59:53.296Z,18.83
2017-02-09T03:01:02.821Z,18.71
2017-02-09T03:02:12.728Z,18.8
2017-02-09T03:03:23.018Z,18.75
2017-02-09T03:04:32.111Z,18.75
2017-02-09T03:05:41.996Z,18.73
2017-02-09T03:06:51.095Z,18.71
2017-02-09T03:08:01.721Z,18.73
2017-02-09T03:09:11.214Z,18.75
2017-02-09T03:10:21.908Z,18.75
2017-02-09T03:11:31.831Z,18.68
2017-02-09T03:12:42.517Z,18.71
2017-02-09T03:13:52.860Z,18.74
2017-02-09T03:15:02.392Z,18.73
2017-02-09T03:16:12.694Z,18.77
2017-02-09T03:17:22.210Z,18.71
2017-02-09T03:18:31.763Z,18.73
2017-02-09T03:19:41.307Z,18.73
2017-02-09T03:20:50.795Z,18.7
2017-02-09T03:22:00.677Z,18.71
2017-02-09T03:23:10.583Z,18.66
2017-02-09T03:24:20.494Z,18.78
2017-02-09T03:25:30.009Z,18.73
2017-02-09T03:26:39.869Z,18.7
2017-02-09T03:27:49.355Z,18.73
2017-02-09T03:28:58.876Z,18.68
2017-02-09T03:30:08.789Z,18.68
2017-02-09T03:31:18.691Z,18.73
2017-02-09T03:32:28.553Z,18.65
2017-02-09T03:33:39.013Z,18.62
2017-02-09T03:34:49.301Z,18.66
2017-02-09T03:35:58.436Z,18.63
2017-02-09T03:37:07.958Z,18.58
2017-02-09T03:38:17.475Z,18.63
2017-02-09T03:39:27.374Z,18.71
2017-02-09T03:40:36.900Z,18.66
2017-02-09T03:41:47.148Z,18.62
2017-02-09T03:42:57.369Z,18.58
2017-02-09T03:44:07.207Z,18.65
2017-02-09T03:45:17.469Z,18.53
2017-02-09T03:46:26.988Z,18.56
2017-02-09T03:47:36.902Z,18.56
2017-02-09T03:48:46.808Z,18.6
2017-02-09T03:49:56.712Z,18.58
2017-02-09T03:51:06.626Z,18.56
2017-02-09T03:52:15.761Z,18.55
2017-02-09T03:53:26.437Z,18.59
2017-02-09T03:54:35.936Z,18.6
2017-02-09T03:55:46.219Z,18.6
2017-02-09T03:56:57.090Z,18.55
2017-02-09T03:58:07.383Z,18.6
2017-02-09T03:59:16.902Z,18.59
2017-02-09T04:00:27.195Z,18.56
2017-02-09T04:01:36.726Z,18.53
2017-02-09T04:02:47.014Z,18.55
2017-02-09T04:03:57.308Z,18.52
2017-02-09T04:05:07.211Z,18.52
2017-02-09T04:06:17.476Z,18.53
2017-02-09T04:07:26.993Z,18.59
2017-02-09T04:08:36.898Z,18.5
2017-02-09T04:09:47.182Z,18.56
2017-02-09T04:10:56.697Z,18.53
2017-02-09T04:12:06.604Z,18.53
2017-02-09T04:13:16.894Z,18.52
2017-02-09T04:14:26.391Z,18.52
2017-02-09T04:15:36.897Z,18.5
2017-02-09T04:16:45.610Z,18.53
2017-02-09T04:17:54.289Z,18.55
2017-02-09T04:19:03.779Z,18.53
2017-02-09T04:20:13.303Z,18.44
2017-02-09T04:21:22.399Z,18.5
2017-02-09T04:22:32.633Z,18.4
2017-02-09T04:23:42.085Z,18.43
2017-02-09T04:24:50.807Z,18.55
2017-02-09T04:26:00.320Z,18.56
2017-02-09T04:27:09.834Z,18.5
2017-02-09T04:28:19.350Z,18.49
2017-02-09T04:29:29.213Z,18.52
2017-02-09T04:30:39.092Z,18.56
2017-02-09T04:31:49.383Z,18.4
2017-02-09T04:32:59.675Z,18.41
2017-02-09T04:34:09.202Z,18.49
2017-02-09T04:35:18.292Z,18.37
2017-02-09T04:36:27.036Z,18.47
2017-02-09T04:37:37.322Z,18.56
2017-02-09T04:38:47.602Z,18.43
2017-02-09T04:39:57.122Z,18.53
2017-02-09T04:41:06.642Z,18.41
2017-02-09T04:42:16.162Z,18.56
2017-02-09T04:43:26.073Z,18.52
2017-02-09T04:44:35.604Z,18.52
2017-02-09T04:45:45.508Z,18.52
2017-02-09T04:46:56.183Z,18.53
2017-02-09T04:48:06.472Z,18.49
2017-02-09T04:49:16.381Z,18.55
2017-02-09T04:50:25.479Z,18.58
2017-02-09T04:51:35.745Z,18.6
2017-02-09T04:52:46.031Z,18.59
2017-02-09T04:53:55.927Z,18.56
2017-02-09T04:55:05.405Z,18.53
2017-02-09T04:56:14.913Z,18.65
2017-02-09T04:57:24.820Z,18.73
2017-02-09T04:58:34.723Z,18.65
2017-02-09T04:59:44.246Z,18.68
2017-02-09T05:00:53.764Z,18.71
2017-02-09T05:02:04.058Z,18.63
2017-02-09T05:03:13.966Z,18.73
2017-02-09T05:04:23.489Z,18.73
2017-02-09T05:05:32.625Z,18.66
2017-02-09T05:06:41.772Z,18.73
2017-02-09T05:07:51.288Z,18.71
2017-02-09T05:09:00.766Z,18.78
2017-02-09T05:10:11.043Z,18.77
2017-02-09T05:11:21.333Z,18.78
2017-02-09T05:12:30.861Z,18.78
2017-02-09T05:13:41.546Z,18.75
2017-02-09T05:14:51.840Z,18.8
2017-02-09T05:16:01.357Z,18.86
2017-02-09T05:17:11.223Z,18.83
2017-02-09T05:18:20.711Z,18.86
2017-02-09T05:19:31.010Z,18.89
2017-02-09T05:20:41.305Z,18.88
2017-02-09T05:21:51.174Z,18.92
2017-02-09T05:23:01.050Z,18.93
2017-02-09T05:24:11.339Z,18.9
2017-02-09T05:25:21.628Z,18.88
2017-02-09T05:26:31.532Z,18.88
2017-02-09T05:27:41.437Z,18.86
2017-02-09T05:28:51.340Z,18.89
2017-02-09T05:30:00.822Z,18.9
2017-02-09T05:31:10.315Z,18.89
2017-02-09T05:32:20.175Z,19
2017-02-09T05:33:30.432Z,19.02
2017-02-09T05:34:40.728Z,18.98
2017-02-09T05:35:50.258Z,19.07
2017-02-09T05:37:00.548Z,19.02
2017-02-09T05:38:10.837Z,18.95
2017-02-09T05:39:20.747Z,18.99
2017-02-09T05:40:31.036Z,18.9
2017-02-09T05:41:41.345Z,18.93
2017-02-09T05:42:51.501Z,18.86
2017-02-09T05:44:00.596Z,18.84
2017-02-09T05:45:10.466Z,18.84
2017-02-09T05:46:19.993Z,18.8
2017-02-09T05:47:29.896Z,18.78
2017-02-09T05:48:40.188Z,18.83
2017-02-09T05:49:50.095Z,18.86
2017-02-09T05:51:00.031Z,18.92
2017-02-09T05:52:09.938Z,18.88
2017-02-09T05:53:19.459Z,18.89
2017-02-09T05:54:29.753Z,18.88
2017-02-09T05:55:40.632Z,18.92
2017-02-09T05:56:50.535Z,18.84
2017-02-09T05:58:00.397Z,18.88
2017-02-09T05:59:10.271Z,18.93
2017-02-09T06:00:20.599Z,18.89
2017-02-09T06:01:30.123Z,18.88
2017-02-09T06:02:40.043Z,18.88
2017-02-09T06:03:49.954Z,18.9
2017-02-09T06:04:59.478Z,18.99
2017-02-09T06:06:08.611Z,18.95
2017-02-09T06:07:19.297Z,19
2017-02-09T06:08:28.824Z,18.99
2017-02-09T06:09:39.117Z,19.07
2017-02-09T06:10:48.254Z,19
2017-02-09T06:11:58.506Z,18.99
2017-02-09T06:13:08.768Z,19.04
2017-02-09T06:14:19.065Z,19.08
2017-02-09T06:15:28.593Z,19.08
2017-02-09T06:16:38.844Z,19.08
2017-02-09T06:17:48.331Z,19.08
2017-02-09T06:18:57.817Z,19.11
2017-02-09T06:20:07.691Z,19.11
2017-02-09T06:21:16.836Z,19.16
2017-02-09T06:22:26.749Z,19.12
2017-02-09T06:23:36.641Z,19.04
2017-02-09T06:24:46.547Z,18.98
2017-02-09T06:25:56.074Z,18.99
2017-02-09T06:27:05.995Z,18.98
2017-02-09T06:28:16.286Z,18.95
2017-02-09T06:29:25.814Z,18.98
2017-02-09T06:30:34.945Z,19.08
2017-02-09T06:31:44.815Z,19.16
2017-02-09T06:32:54.794Z,19.21
2017-02-09T06:34:04.322Z,19.27
2017-02-09T06:35:14.232Z,19.27
2017-02-09T06:36:23.368Z,19.24
2017-02-09T06:37:32.893Z,19.36
2017-02-09T06:38:42.035Z,19.45
2017-02-09T06:39:51.937Z,19.4
2017-02-09T06:41:02.219Z,19.39
2017-02-09T06:42:12.134Z,19.34
2017-02-09T06:43:22.037Z,19.44
2017-02-09T06:44:31.551Z,19.44
2017-02-09T06:45:41.052Z,19.47
2017-02-09T06:46:50.932Z,19.44
2017-02-09T06:48:01.269Z,19.44
2017-02-09T06:49:10.752Z,19.44
2017-02-09T06:50:20.630Z,19.47
2017-02-09T06:51:30.931Z,19.51
2017-02-09T06:52:40.459Z,19.41
2017-02-09T06:53:50.750Z,19.49
2017-02-09T06:55:00.613Z,19.47
2017-02-09T06:56:10.489Z,19.49
2017-02-09T06:57:20.011Z,19.52
2017-02-09T06:58:29.920Z,19.47
2017-02-09T06:59:40.219Z,19.51
2017-02-09T07:00:49.740Z,19.55
2017-02-09T07:01:59.648Z,19.56
2017-02-09T07:03:09.174Z,19.63
2017-02-09T07:04:19.513Z,19.54
2017-02-09T07:05:29.417Z,19.54
2017-02-09T07:06:38.511Z,19.64
2017-02-09T07:07:47.965Z,19.67
2017-02-09T07:08:58.002Z,19.56
2017-02-09T07:10:07.529Z,19.52
2017-02-09T07:11:17.060Z,19.63
2017-02-09T07:12:27.384Z,19.62
2017-02-09T07:13:36.900Z,19.58
2017-02-09T07:14:46.815Z,19.64
2017-02-09T07:15:56.725Z,19.63
2017-02-09T07:17:07.023Z,19.69
2017-02-09T07:18:17.327Z,19.62
2017-02-09T07:19:27.614Z,19.67
2017-02-09T07:20:37.093Z,19.71
2017-02-09T07:21:47.358Z,19.7
2017-02-09T07:22:57.234Z,19.67
2017-02-09T07:24:06.371Z,19.71
2017-02-09T07:25:15.503Z,19.73
2017-02-09T07:26:25.026Z,19.74
2017-02-09T07:27:35.328Z,19.66
2017-02-09T07:28:45.242Z,19.64
2017-02-09T07:29:55.152Z,19.69
2017-02-09T07:31:04.685Z,19.69
2017-02-09T07:32:14.976Z,19.77
2017-02-09T07:33:24.495Z,19.7
2017-02-09T07:34:34.011Z,19.66
2017-02-09T07:35:44.309Z,19.71
2017-02-09T07:36:53.832Z,19.73
2017-02-09T07:38:04.083Z,19.73
2017-02-09T07:39:14.364Z,19.71
2017-02-09T07:40:24.219Z,19.79
2017-02-09T07:41:34.532Z,19.77
2017-02-09T07:42:44.784Z,19.79
2017-02-09T07:43:54.303Z,19.85
2017-02-09T07:45:04.608Z,19.79
2017-02-09T07:46:14.474Z,19.79
2017-02-09T07:47:24.358Z,19.79
2017-02-09T07:48:34.262Z,19.79
2017-02-09T07:49:43.717Z,19.85
2017-02-09T07:50:52.434Z,19.84
2017-02-09T07:52:01.953Z,19.81
2017-02-09T07:53:12.239Z,19.85
2017-02-09T07:54:21.763Z,19.82
2017-02-09T07:55:31.683Z,19.85
2017-02-09T07:56:40.789Z,19.86
2017-02-09T07:57:51.428Z,19.77
2017-02-09T07:59:01.269Z,19.86
2017-02-09T08:00:11.152Z,19.86
2017-02-09T08:01:21.062Z,19.81
2017-02-09T08:02:30.583Z,19.85
2017-02-09T08:03:40.126Z,19.85
2017-02-09T08:04:49.650Z,19.91
2017-02-09T08:05:59.949Z,19.92
2017-02-09T08:07:09.849Z,19.88
2017-02-09T08:08:19.347Z,19.96
2017-02-09T08:09:29.641Z,19.99
2017-02-09T08:10:39.161Z,19.89
2017-02-09T08:11:49.448Z,20
2017-02-09T08:12:59.337Z,20
2017-02-09T08:14:09.220Z,19.99
2017-02-09T08:15:18.355Z,20.02
2017-02-09T08:16:28.268Z,20
2017-02-09T08:17:37.752Z,20
2017-02-09T08:18:47.632Z,20.06
2017-02-09T08:19:57.546Z,19.99
2017-02-09T08:21:06.707Z,20.03
2017-02-09T08:22:15.847Z,20.04
2017-02-09T08:23:25.764Z,20.09
2017-02-09T08:24:35.293Z,20.03
2017-02-09T08:25:45.790Z,20.06
2017-02-09T08:26:55.311Z,20.14
2017-02-09T08:28:04.058Z,20.1
2017-02-09T08:29:12.837Z,20.11
2017-02-09T08:30:22.319Z,20.1
2017-02-09T08:31:32.196Z,20.14
2017-02-09T08:32:41.328Z,20.14
2017-02-09T08:33:50.458Z,20.14
2017-02-09T08:35:00.757Z,20.21
2017-02-09T08:36:10.670Z,20.16
2017-02-09T08:37:20.587Z,20.24
2017-02-09T08:38:30.885Z,20.19
2017-02-09T08:39:41.139Z,20.18
2017-02-09T08:40:50.243Z,20.24
2017-02-09T08:41:59.335Z,20.29
2017-02-09T08:43:08.822Z,20.25
2017-02-09T08:44:17.908Z,20.22
2017-02-09T08:45:27.402Z,20.25
2017-02-09T08:46:37.713Z,20.25
2017-02-09T08:47:47.195Z,20.22
2017-02-09T08:48:56.684Z,20.28
2017-02-09T08:50:05.781Z,20.25
2017-02-09T08:51:14.506Z,20.32
2017-02-09T08:52:24.383Z,20.31
2017-02-09T08:53:33.837Z,20.37
2017-02-09T08:54:43.333Z,20.39
2017-02-09T08:55:53.344Z,20.4
2017-02-09T08:57:03.251Z,20.47
2017-02-09T08:58:13.162Z,20.47
2017-02-09T08:59:23.079Z,20.6
2017-02-09T09:00:31.835Z,20.6
2017-02-09T09:01:41.705Z,20.63
2017-02-09T09:02:51.930Z,20.58
2017-02-09T09:04:01.439Z,20.66
2017-02-09T09:05:11.354Z,20.7
2017-02-09T09:06:20.487Z,20.72
2017-02-09T09:07:29.623Z,20.63
2017-02-09T09:08:39.879Z,20.69
2017-02-09T09:09:48.994Z,20.7
2017-02-09T09:10:58.911Z,20.72
2017-02-09T09:12:08.776Z,20.87
2017-02-09T09:13:18.364Z,20.84
2017-02-09T09:14:27.485Z,20.74
2017-02-09T09:15:37.783Z,20.88
2017-02-09T09:16:47.684Z,20.77
2017-02-09T09:17:57.974Z,20.74
2017-02-09T09:19:07.883Z,20.67
2017-02-09T09:20:18.179Z,20.75
2017-02-09T09:21:28.426Z,20.72
2017-02-09T09:22:37.506Z,20.7
2017-02-09T09:23:46.256Z,20.75
2017-02-09T09:24:56.560Z,20.69
2017-02-09T09:26:05.706Z,20.84
2017-02-09T09:27:14.846Z,20.85
2017-02-09T09:28:24.748Z,20.85
2017-02-09T09:29:34.657Z,20.93
2017-02-09T09:30:43.797Z,20.85
2017-02-09T09:31:52.936Z,20.9
2017-02-09T09:33:02.819Z,20.9
2017-02-09T09:34:11.892Z,20.87
2017-02-09T09:35:21.396Z,20.93
2017-02-09T09:36:31.305Z,20.95
2017-02-09T09:37:40.834Z,20.82
2017-02-09T09:38:49.933Z,20.77
2017-02-09T09:39:58.695Z,20.84
2017-02-09T09:41:07.799Z,20.85
2017-02-09T09:42:17.681Z,20.96
2017-02-09T09:43:27.163Z,20.85
2017-02-09T09:44:36.658Z,20.88
2017-02-09T09:45:46.570Z,20.85
2017-02-09T09:46:56.483Z,20.9
2017-02-09T09:48:06.392Z,20.92
2017-02-09T09:49:16.302Z,20.92
2017-02-09T09:50:26.604Z,21.05
2017-02-09T09:51:36.133Z,21.15
2017-02-09T09:52:46.053Z,21.21
2017-02-09T09:53:55.573Z,21.27
2017-02-09T09:55:04.716Z,21.37
2017-02-09T09:56:13.815Z,21.51
2017-02-09T09:57:22.926Z,21.43
2017-02-09T09:58:32.456Z,21.39
2017-02-09T09:59:41.587Z,21.37
2017-02-09T10:00:50.725Z,21.36
2017-02-09T10:02:00.640Z,21.29
2017-02-09T10:03:10.546Z,21.37
2017-02-09T10:04:20.842Z,21.57
2017-02-09T10:05:30.748Z,21.69
2017-02-09T10:06:40.619Z,21.82
2017-02-09T10:07:50.154Z,22.14
2017-02-09T10:08:59.291Z,22.29
2017-02-09T10:10:09.585Z,22.32
2017-02-09T10:11:19.504Z,22.38
2017-02-09T10:12:28.650Z,22.36
2017-02-09T10:13:39.048Z,22.6
2017-02-09T10:14:49.350Z,22.66
2017-02-09T10:15:59.260Z,22.54
2017-02-09T10:17:09.127Z,22.35
2017-02-09T10:18:18.618Z,22.26
2017-02-09T10:19:28.117Z,22.44
2017-02-09T10:20:37.645Z,22.38
2017-02-09T10:21:47.516Z,22.41
2017-02-09T10:22:57.050Z,22.41
2017-02-09T10:24:07.342Z,22.29
2017-02-09T10:25:16.483Z,22.22
2017-02-09T10:26:25.625Z,22.17
2017-02-09T10:27:35.539Z,22.22
2017-02-09T10:28:44.670Z,22.28
2017-02-09T10:29:54.976Z,22.41
2017-02-09T10:31:04.111Z,22.48
2017-02-09T10:32:14.023Z,22.36
2017-02-09T10:33:23.935Z,22.26
2017-02-09T10:34:33.455Z,22.25
2017-02-09T10:35:42.591Z,22.3
2017-02-09T10:36:52.124Z,22.39
2017-02-09T10:38:01.700Z,22.63
2017-02-09T10:39:11.993Z,22.66
2017-02-09T10:40:22.288Z,22.7
2017-02-09T10:41:32.201Z,22.65
2017-02-09T10:42:41.304Z,22.47
2017-02-09T10:43:50.803Z,22.5
2017-02-09T10:45:01.487Z,22.38
2017-02-09T10:46:11.397Z,22.28
2017-02-09T10:47:21.319Z,22.14
2017-02-09T10:48:31.232Z,22.14
2017-02-09T10:49:40.758Z,22.07
2017-02-09T10:50:51.020Z,22.07
2017-02-09T10:52:01.631Z,21.98
2017-02-09T10:53:10.743Z,21.92
2017-02-09T10:54:21.431Z,21.79
2017-02-09T10:55:31.736Z,21.73
2017-02-09T10:56:42.044Z,21.73
2017-02-09T10:57:51.953Z,21.72
2017-02-09T10:59:01.048Z,21.72
2017-02-09T11:00:10.943Z,21.79
2017-02-09T11:01:20.863Z,21.79
2017-02-09T11:02:30.809Z,21.72
2017-02-09T11:03:40.703Z,21.83
2017-02-09T11:04:50.619Z,21.92
2017-02-09T11:06:00.924Z,21.88
2017-02-09T11:07:11.239Z,21.89
2017-02-09T11:08:21.497Z,21.93
2017-02-09T11:09:31.381Z,21.92
2017-02-09T11:10:41.676Z,21.95
2017-02-09T11:11:50.829Z,21.99
2017-02-09T11:13:00.123Z,22
2017-02-09T11:14:10.002Z,21.96
2017-02-09T11:15:19.884Z,21.99
2017-02-09T11:16:30.183Z,21.99
2017-02-09T11:17:40.478Z,21.95
2017-02-09T11:18:50.776Z,21.93
2017-02-09T11:20:00.680Z,21.89
2017-02-09T11:21:10.976Z,21.92
2017-02-09T11:22:20.891Z,21.88
2017-02-09T11:23:30.802Z,21.88
2017-02-09T11:24:40.324Z,21.98
2017-02-09T11:25:50.584Z,21.98
2017-02-09T11:27:00.080Z,21.99
2017-02-09T11:28:09.994Z,22.02
2017-02-09T11:29:19.523Z,22.06
2017-02-09T11:30:28.620Z,22.07
2017-02-09T11:31:38.116Z,22.06
2017-02-09T11:32:48.037Z,22.07
2017-02-09T11:33:57.560Z,22.07
2017-02-09T11:35:07.089Z,22.1
2017-02-09T11:36:16.238Z,22.13
2017-02-09T11:37:26.104Z,22.07
2017-02-09T11:38:35.609Z,22.13
2017-02-09T11:39:46.503Z,22.1
2017-02-09T11:40:56.806Z,22.07
2017-02-09T11:42:06.726Z,22.08
2017-02-09T11:43:16.637Z,22.14
2017-02-09T11:44:26.202Z,22.2
2017-02-09T11:45:36.531Z,22.13
2017-02-09T11:46:46.451Z,22.26
2017-02-09T11:47:56.366Z,22.25
2017-02-09T11:49:06.667Z,22.26
2017-02-09T11:50:15.427Z,22.29
2017-02-09T11:51:24.962Z,22.28
2017-02-09T11:52:34.108Z,22.43
2017-02-09T11:53:42.863Z,22.45
2017-02-09T11:54:52.012Z,22.54
2017-02-09T11:56:01.544Z,22.48
2017-02-09T11:57:11.447Z,22.54
2017-02-09T11:58:20.970Z,22.69
2017-02-09T11:59:29.692Z,22.75
2017-02-09T12:00:39.190Z,22.83
2017-02-09T12:01:48.676Z,22.65
2017-02-09T12:02:58.182Z,22.75
2017-02-09T12:04:07.709Z,22.7
2017-02-09T12:05:18.010Z,22.69
2017-02-09T12:06:28.310Z,22.72
2017-02-09T12:07:38.228Z,22.73
2017-02-09T12:08:48.141Z,22.69
2017-02-09T12:09:57.667Z,22.72
2017-02-09T12:11:07.192Z,22.78
2017-02-09T12:12:16.302Z,22.8
2017-02-09T12:13:25.762Z,22.75
2017-02-09T12:14:35.648Z,22.81
2017-02-09T12:15:45.528Z,22.84
2017-02-09T12:16:55.021Z,22.85
2017-02-09T12:18:04.552Z,22.85
2017-02-09T12:19:14.469Z,22.8
2017-02-09T12:20:24.002Z,22.81
2017-02-09T12:21:32.743Z,22.68
2017-02-09T12:22:42.271Z,22.78
2017-02-09T12:23:51.791Z,22.66
2017-02-09T12:25:01.423Z,22.73
2017-02-09T12:26:10.961Z,22.73
2017-02-09T12:27:20.501Z,22.7
2017-02-09T12:28:30.031Z,22.68
2017-02-09T12:29:39.168Z,22.78
2017-02-09T12:30:48.701Z,22.7
2017-02-09T12:31:58.226Z,22.66
2017-02-09T12:33:08.133Z,22.7
2017-02-09T12:34:18.049Z,22.7
2017-02-09T12:35:28.301Z,22.63
2017-02-09T12:36:37.799Z,22.7
2017-02-09T12:37:47.334Z,22.75
2017-02-09T12:38:56.860Z,22.69
2017-02-09T12:40:06.362Z,22.66
2017-02-09T12:41:15.474Z,22.76
2017-02-09T12:42:25.767Z,22.75
2017-02-09T12:43:36.062Z,22.63
2017-02-09T12:44:46.752Z,22.7
2017-02-09T12:45:55.854Z,22.7
2017-02-09T12:47:05.367Z,22.7
2017-02-09T12:48:14.904Z,22.69
2017-02-09T12:49:24.432Z,22.72
2017-02-09T12:50:33.960Z,22.8
2017-02-09T12:51:43.878Z,22.68
2017-02-09T12:52:53.016Z,22.73
2017-02-09T12:54:02.537Z,22.69
2017-02-09T12:55:12.447Z,22.68
2017-02-09T12:56:21.972Z,22.68
2017-02-09T12:57:31.896Z,22.73
2017-02-09T12:58:42.211Z,22.68
2017-02-09T12:59:52.512Z,22.63
2017-02-09T13:01:01.651Z,22.59
2017-02-09T13:02:11.950Z,22.68
2017-02-09T13:03:21.855Z,22.72
2017-02-09T13:04:31.385Z,22.75
2017-02-09T13:05:42.075Z,22.66
2017-02-09T13:06:51.601Z,22.7
2017-02-09T13:08:01.135Z,22.68
2017-02-09T13:09:10.284Z,22.73
2017-02-09T13:10:19.977Z,22.66
2017-02-09T13:11:29.494Z,22.68
2017-02-09T13:12:39.377Z,22.68
2017-02-09T13:13:48.910Z,22.65
2017-02-09T13:14:58.401Z,22.7
2017-02-09T13:16:08.672Z,22.66
2017-02-09T13:17:18.588Z,22.63
2017-02-09T13:18:28.507Z,22.51
2017-02-09T13:19:38.422Z,22.45
2017-02-09T13:20:48.333Z,22.32
2017-02-09T13:21:57.086Z,22.32
2017-02-09T13:23:06.995Z,22.35
2017-02-09T13:24:16.516Z,22.35
2017-02-09T13:25:26.038Z,22.2
2017-02-09T13:26:35.565Z,22.28
2017-02-09T13:27:45.087Z,22.26
2017-02-09T13:28:54.999Z,22.17
2017-02-09T13:30:04.921Z,22.18
2017-02-09T13:31:14.403Z,22.25
2017-02-09T13:32:24.286Z,22.25
2017-02-09T13:33:33.810Z,22.26
2017-02-09T13:34:44.453Z,22.13
2017-02-09T13:35:53.945Z,22.18
2017-02-09T13:37:03.327Z,22.2
2017-02-09T13:38:12.463Z,22.14
2017-02-09T13:39:21.979Z,22.18
2017-02-09T13:40:32.281Z,22.23
2017-02-09T13:41:42.583Z,22.25
2017-02-09T13:42:52.107Z,22.26
2017-02-09T13:44:02.568Z,22.29
2017-02-09T13:45:12.067Z,22.25
2017-02-09T13:46:20.824Z,22.33
2017-02-09T13:47:30.354Z,22.25
2017-02-09T13:48:40.645Z,22.28
2017-02-09T13:49:50.558Z,22.3
2017-02-09T13:50:59.703Z,22.25
2017-02-09T13:52:09.238Z,22.29
2017-02-09T13:53:18.370Z,22.28
2017-02-09T13:54:27.858Z,22.29
2017-02-09T13:55:37.744Z,22.2
2017-02-09T13:56:46.891Z,22.22
2017-02-09T13:57:56.034Z,22.22
2017-02-09T13:59:06.720Z,22.25
2017-02-09T14:00:16.644Z,22.26
2017-02-09T14:01:26.939Z,22.23
2017-02-09T14:02:36.854Z,22.22
2017-02-09T14:03:47.185Z,22.14
2017-02-09T14:04:57.056Z,22.2
2017-02-09T14:06:07.669Z,22.17
2017-02-09T14:07:17.546Z,22.14
2017-02-09T14:08:27.068Z,22.18
2017-02-09T14:09:36.591Z,22.1
2017-02-09T14:10:45.730Z,22.15
2017-02-09T14:11:55.258Z,22.11
2017-02-09T14:13:05.555Z,22.07
2017-02-09T14:14:15.082Z,22.15
2017-02-09T14:15:24.998Z,22.15
2017-02-09T14:16:34.526Z,22.08
2017-02-09T14:17:44.442Z,22.07
2017-02-09T14:18:54.742Z,22.14
2017-02-09T14:20:03.946Z,22.17
2017-02-09T14:21:13.830Z,22.07
2017-02-09T14:22:24.331Z,22.08
2017-02-09T14:23:35.053Z,21.98
2017-02-09T14:24:44.968Z,21.95
2017-02-09T14:25:54.866Z,21.95
2017-02-09T14:27:04.717Z,21.89
2017-02-09T14:28:14.976Z,21.92
2017-02-09T14:29:24.475Z,21.82
2017-02-09T14:30:34.380Z,21.88
2017-02-09T14:31:44.675Z,21.8
2017-02-09T14:32:54.590Z,21.91
2017-02-09T14:34:04.944Z,21.89
2017-02-09T14:35:14.047Z,21.8
2017-02-09T14:36:23.927Z,21.73
2017-02-09T14:37:32.689Z,21.73
2017-02-09T14:38:42.946Z,21.75
2017-02-09T14:39:53.219Z,21.75
2017-02-09T14:41:03.135Z,21.73
2017-02-09T14:42:13.439Z,21.75
2017-02-09T14:43:22.555Z,21.7
2017-02-09T14:44:32.049Z,21.64
2017-02-09T14:45:42.353Z,21.69
2017-02-09T14:46:52.269Z,21.67
2017-02-09T14:48:01.665Z,21.58
2017-02-09T14:49:10.804Z,21.61
2017-02-09T14:50:20.711Z,21.6
2017-02-09T14:51:31.013Z,21.64
2017-02-09T14:52:40.931Z,21.55
2017-02-09T14:53:51.222Z,21.64
2017-02-09T14:55:01.135Z,21.62
2017-02-09T14:56:10.278Z,21.66
2017-02-09T14:57:20.186Z,21.64
2017-02-09T14:58:29.335Z,21.6
2017-02-09T14:59:38.481Z,21.6
2017-02-09T15:00:47.616Z,21.58
2017-02-09T15:01:57.579Z,21.6
2017-02-09T15:03:07.108Z,21.66